메인 페이지
METAR-TAF:

METAR-TAF

공항 :

테헤란 메흐라바드 국제공항

테헤란, 이란

위도: 35-41N, 경도: 051-21E, 고도: 1204m

현재 날씨관측

예보는 34분 전, 11:30시(UTC)에 발표되었습니다.
남남서6kt
온도 7°C
습도 31%
기압 1020 hPa
시정: 7000m

METAR: OIII 201130Z 21006KT 7000 NSC 07/M09 Q1020 A3013

시각: 15:34 (12:04 UTC)

예보

예보는 1 시간 4분 전, 11:00시(UTC)에 발표되었습니다.
예보 대상 시간: 20일 12시부터 21일 18시까지 (UTC)
서남서6kt
시정: 7000m
일시적
20일 12시부터 20일 14시까지 (UTC)
시정: 4000m
연무
전환 중
20일 20시부터 20일 22시까지 (UTC)
시정: 4000m
연무
전환 중
21일 03시부터 21일 05시까지 (UTC)
시정: 7000m
일시적
21일 12시부터 21일 18시까지 (UTC)
고도 3500ft 상공 구름 조금, 타워링 적운.
고도 4000ft 상공 구름 보통
고도 10000ft 상공 구름 많음

TAF: OIII 201100Z 2012/2118 24006KT 7000 NSC TEMPO 2012/2014 4000 HZ BECMG 2020/2022 4000 HZ BECMG 2103/2105 7000 TEMPO 2112/2118 FEW035TCU SCT040 BKN100

4,000개 이상의 공항 관측 자료 및 예보 (METAR 및 TAF 보고).

지도상에서 검색 가능한 기상관측소가 노란 점과 빨간 점으로 표시되어 있습니다.

기상관측소 명을 보려면 표시 위로 마우스를 이동하세요.

날씨 관측과 예보를 보려면 클릭하세요.

지도 변경 : 확대하려면 엑스 표시가 있는 녹색 버튼, 축소하려면 빼기 표시가 있는 녹색 버튼, 다음 페이지의 지도를 보려면 녹색 화살표를 클릭하세요.


METAR-TAF: